Time;durP1;ratioP1;P1;durP2;ratioP2;P2;SDS_P1;SDS_P2;PMS_P1;PMS_P2;Temp;Humidity;BMP_temperature;BMP_pressure;BME280_temperature;BME280_humidity;BME280_pressure;Samples;Min_cycle;Max_cycle;Signal;HPM_P1;HPM_P2
2022/05/20 00:01:00;;;;;;;2.20;2.00;;;13.70;79.80;;;;;;1880975;75;21101;-57
2022/05/20 00:03:31;;;;;;;2.42;2.05;;;13.70;79.80;;;;;;1880825;75;21035;-57
2022/05/20 00:06:00;;;;;;;2.75;2.10;;;13.70;79.80;;;;;;1880777;76;21043;-57
2022/05/20 00:08:30;;;;;;;2.20;2.00;;;13.70;79.60;;;;;;1880795;75;21051;-57
2022/05/20 00:10:59;;;;;;;2.67;2.10;;;13.70;79.50;;;;;;1880798;76;21109;-57
2022/05/20 00:13:29;;;;;;;4.35;2.70;;;13.70;79.50;;;;;;1880910;76;21015;-57
2022/05/20 00:15:59;;;;;;;2.60;2.00;;;13.70;79.30;;;;;;1880935;76;21039;-57
2022/05/20 00:18:28;;;;;;;3.05;2.12;;;13.70;79.20;;;;;;1880773;76;21035;-57
2022/05/20 00:20:59;;;;;;;2.70;1.90;;;13.70;79.10;;;;;;1880833;75;21039;-57
2022/05/20 00:23:28;;;;;;;4.53;1.90;;;13.70;78.90;;;;;;1880913;75;21102;-57
2022/05/20 00:25:58;;;;;;;2.42;1.90;;;13.70;78.80;;;;;;1880921;76;21039;-57
2022/05/20 00:28:29;;;;;;;2.17;1.80;;;13.70;78.60;;;;;;1880782;76;21117;-58
2022/05/20 00:31:09;;;;;;;2.37;2.05;;;13.70;78.40;;;;;;1880765;76;21502;-57
2022/05/20 00:33:39;;;;;;;2.17;1.90;;;13.70;78.30;;;;;;1880803;75;21162;-57
2022/05/20 00:36:09;;;;;;;2.95;1.67;;;13.70;78.10;;;;;;1881001;75;21039;-57
2022/05/20 00:38:39;;;;;;;2.37;1.90;;;13.70;78.00;;;;;;1874589;76;21067;-56
2022/05/20 00:41:09;;;;;;;4.00;2.30;;;13.70;78.00;;;;;;1862887;76;21052;-57
2022/05/20 00:43:44;;;;;;;2.02;1.82;;;13.70;77.70;;;;;;1862835;76;21044;-57
2022/05/20 00:46:17;;;;;;;;;;;13.70;77.60;;;;;;1865689;76;21012;-57
2022/05/20 00:48:48;;;;;;;1.85;1.67;;;13.70;77.90;;;;;;1862752;76;20133;-57
2022/05/20 00:51:20;;;;;;;3.00;2.17;;;13.70;77.40;;;;;;1862873;76;21035;-57
2022/05/20 00:54:08;;;;;;;2.30;2.10;;;13.70;77.30;;;;;;1862676;77;21106;-58
2022/05/20 00:56:49;;;;;;;2.33;1.90;;;13.70;77.20;;;;;;1863047;77;21111;-57
2022/05/20 00:59:21;;;;;;;2.92;2.00;;;13.70;77.10;;;;;;1862914;76;21028;-57
2022/05/20 01:01:52;;;;;;;3.00;2.20;;;13.60;77.10;;;;;;1862922;76;21044;-57
2022/05/20 01:04:23;;;;;;;2.42;1.82;;;13.60;77.10;;;;;;1863094;77;21110;-57
2022/05/20 01:06:54;;;;;;;3.00;2.20;;;13.60;76.90;;;;;;1862959;76;21016;-56
2022/05/20 01:09:23;;;;;;;2.87;2.12;;;13.60;76.90;;;;;;1863071;76;21048;-57
2022/05/20 01:11:52;;;;;;;2.37;2.00;;;13.50;76.80;;;;;;1862869;77;21060;-57
2022/05/20 01:14:24;;;;;;;2.67;1.62;;;13.50;76.60;;;;;;1863002;77;21040;-57
2022/05/20 01:16:54;;;;;;;2.37;2.00;;;13.50;76.50;;;;;;1862860;76;21118;-57
2022/05/20 01:19:41;;;;;;;2.10;1.85;;;13.50;76.50;;;;;;1862892;77;21092;-58
2022/05/20 01:22:13;;;;;;;2.40;1.82;;;13.50;76.50;;;;;;1862982;77;21064;-57
2022/05/20 01:24:42;;;;;;;1.52;1.42;;;13.50;76.40;;;;;;1862942;77;21113;-57
2022/05/20 01:27:12;;;;;;;2.50;1.75;;;13.50;77.10;;;;;;1862992;76;21048;-56
2022/05/20 01:29:41;;;;;;;3.62;1.90;;;13.50;76.40;;;;;;1862963;76;21130;-57
2022/05/20 01:32:11;;;;;;;6.45;1.98;;;13.40;76.40;;;;;;1863075;76;21056;-57
2022/05/20 01:34:40;;;;;;;1.75;1.32;;;13.40;76.40;;;;;;1863105;77;21584;-57
2022/05/20 01:37:10;;;;;;;2.62;2.02;;;13.40;76.40;;;;;;1863060;77;21040;-57
2022/05/20 01:39:39;;;;;;;2.10;1.90;;;13.40;76.40;;;;;;1863052;76;21130;-57
2022/05/20 01:42:17;;;;;;;2.75;2.02;;;13.40;76.50;;;;;;1862851;76;21110;-57
2022/05/20 01:44:49;;;;;;;2.00;1.70;;;13.40;76.40;;;;;;1862549;77;21102;-57
2022/05/20 01:47:24;;;;;;;4.10;2.08;;;13.50;76.40;;;;;;1862552;77;21040;-58
2022/05/20 01:50:05;;;;;;;3.42;1.80;;;13.50;76.40;;;;;;1862958;76;21040;-57
2022/05/20 01:52:46;;;;;;;1.65;1.50;;;13.40;76.30;;;;;;1862969;76;21479;-57
2022/05/20 01:55:18;;;;;;;3.15;2.02;;;13.40;76.30;;;;;;1862926;76;21173;-57
2022/05/20 01:58:05;;;;;;;4.17;2.05;;;13.40;76.30;;;;;;1863021;76;21474;-57
2022/05/20 02:00:36;;;;;;;1.87;1.67;;;13.50;76.40;;;;;;1862913;77;21343;-57
2022/05/20 02:03:08;;;;;;;3.47;1.65;;;13.50;76.40;;;;;;1862866;76;21008;-57
2022/05/20 02:05:52;;;;;;;2.25;1.60;;;13.50;76.40;;;;;;1862966;77;21110;-57
2022/05/20 02:08:27;;;;;;;3.85;2.02;;;13.50;76.50;;;;;;1863039;76;21101;-57
2022/05/20 02:11:02;;;;;;;2.17;1.70;;;13.50;76.50;;;;;;1862841;76;21122;-58
2022/05/20 02:13:31;;;;;;;;;;;13.50;76.40;;;;;;1865152;77;21040;-57
2022/05/20 02:16:03;;;;;;;2.90;1.60;;;13.50;76.90;;;;;;1862952;76;20094;-57
2022/05/20 02:18:50;;;;;;;1.77;1.65;;;13.50;76.30;;;;;;1862610;76;21588;-58
2022/05/20 02:21:22;;;;;;;4.45;2.25;;;13.50;76.30;;;;;;1862875;76;21509;-58
2022/05/20 02:23:54;;;;;;;4.17;1.92;;;13.60;76.40;;;;;;1862839;76;21133;-57
2022/05/20 02:26:26;;;;;;;1.80;1.60;;;13.60;76.30;;;;;;1862936;76;21102;-57
2022/05/20 02:28:57;;;;;;;3.87;1.65;;;13.60;76.10;;;;;;1862861;76;21107;-57
2022/05/20 02:31:32;;;;;;;2.37;2.10;;;13.60;76.00;;;;;;1862640;77;21039;-57
2022/05/20 02:34:02;;;;;;;2.15;1.80;;;13.70;76.10;;;;;;1863078;76;21110;-58
2022/05/20 02:36:33;;;;;;;4.40;2.17;;;13.70;76.00;;;;;;1862861;77;21052;-57
2022/05/20 02:39:04;;;;;;;4.12;1.62;;;13.70;76.10;;;;;;1862838;76;21102;-58
2022/05/20 02:41:33;;;;;;;3.00;1.75;;;13.80;76.10;;;;;;1862978;76;21118;-57
2022/05/20 02:44:02;;;;;;;4.67;1.75;;;13.70;76.00;;;;;;1862844;76;21040;-58
2022/05/20 02:46:32;;;;;;;2.37;2.20;;;13.70;76.10;;;;;;1862817;77;21099;-57
2022/05/20 02:49:02;;;;;;;1.82;1.40;;;13.80;76.10;;;;;;1862809;77;21032;-57
2022/05/20 02:51:31;;;;;;;4.08;1.70;;;13.80;76.20;;;;;;1862835;76;21032;-58
2022/05/20 02:54:00;;;;;;;2.62;1.82;;;13.80;76.20;;;;;;1862929;77;21029;-58
2022/05/20 02:56:30;;;;;;;2.17;1.50;;;13.80;76.20;;;;;;1862955;77;21040;-58
2022/05/20 03:04:33;;;;;;;2.85;2.05;;;13.90;76.30;;;;;;1862850;76;21043;-57
2022/05/20 03:07:03;;;;;;;3.20;1.77;;;13.90;76.40;;;;;;1862817;76;21035;-57
2022/05/20 03:09:33;;;;;;;3.95;2.40;;;13.90;76.50;;;;;;1862790;77;21028;-57
2022/05/20 03:12:02;;;;;;;1.90;1.70;;;13.90;76.30;;;;;;1862810;77;21016;-57
2022/05/20 03:14:32;;;;;;;3.87;1.82;;;14.00;76.40;;;;;;1862831;77;21040;-57
2022/05/20 03:17:02;;;;;;;2.47;1.80;;;14.00;76.40;;;;;;1862884;76;21012;-58
2022/05/20 03:19:31;;;;;;;3.25;1.57;;;14.00;76.40;;;;;;1862918;76;21106;-57
2022/05/20 03:22:03;;;;;;;2.20;1.72;;;14.00;76.40;;;;;;1862829;77;21043;-58
2022/05/20 03:24:33;;;;;;;2.75;1.98;;;14.10;76.60;;;;;;1862844;76;21106;-57
2022/05/20 03:27:03;;;;;;;1.62;1.52;;;14.10;76.70;;;;;;1862800;77;21036;-57
2022/05/20 03:29:33;;;;;;;5.00;1.98;;;14.10;76.60;;;;;;1862761;76;21044;-57
2022/05/20 03:32:02;;;;;;;2.15;1.72;;;14.10;76.70;;;;;;1862830;77;21052;-58
2022/05/20 03:34:32;;;;;;;2.40;1.80;;;14.20;76.60;;;;;;1862792;76;21040;-57
2022/05/20 03:37:01;;;;;;;3.55;1.95;;;14.20;76.60;;;;;;1862861;76;21126;-57
2022/05/20 03:39:31;;;;;;;3.58;2.37;;;14.30;77.30;;;;;;1862911;77;21040;-57
2022/05/20 03:42:00;;;;;;;3.22;1.72;;;14.30;76.70;;;;;;1862780;77;21109;-57
2022/05/20 03:44:30;;;;;;;3.17;2.08;;;14.40;76.50;;;;;;1862905;76;21102;-57
2022/05/20 03:47:01;;;;;;;3.45;1.70;;;14.40;76.60;;;;;;1862762;76;21036;-57
2022/05/20 03:49:31;;;;;;;3.45;1.60;;;14.40;76.50;;;;;;1862799;77;21016;-57
2022/05/20 03:52:00;;;;;;;6.03;2.08;;;14.50;76.50;;;;;;1862788;76;21056;-57
2022/05/20 03:54:32;;;;;;;6.40;2.17;;;14.50;76.50;;;;;;1863017;77;21040;-58
2022/05/20 03:57:02;;;;;;;6.60;1.80;;;14.50;76.50;;;;;;1862894;77;21103;-57
2022/05/20 03:59:36;;;;;;;3.37;1.70;;;14.60;76.60;;;;;;1862848;77;21032;-57
2022/05/20 04:02:05;;;;;;;2.95;1.90;;;14.60;76.70;;;;;;1862433;77;21475;-57
2022/05/20 04:04:43;;;;;;;5.62;2.30;;;14.70;76.70;;;;;;1862894;77;21008;-57
2022/05/20 04:07:18;;;;;;;3.12;2.00;;;14.70;76.70;;;;;;1862882;77;21483;-57
2022/05/20 04:09:48;;;;;;;4.08;2.08;;;14.80;76.70;;;;;;1862923;76;21109;-57
2022/05/20 04:12:26;;;;;;;3.22;2.37;;;14.90;76.90;;;;;;1862691;76;21064;-57
2022/05/20 04:14:56;;;;;;;2.33;1.80;;;14.90;76.80;;;;;;1857308;76;21036;-57
2022/05/20 04:17:26;;;;;;;3.05;2.22;;;15.00;76.70;;;;;;1862807;76;21040;-57
2022/05/20 04:19:56;;;;;;;3.10;1.85;;;15.00;76.70;;;;;;1862844;76;21040;-58
2022/05/20 04:22:30;;;;;;;5.33;2.30;;;15.10;76.60;;;;;;1862686;77;21036;-57
2022/05/20 04:25:00;;;;;;;4.05;1.90;;;15.10;76.70;;;;;;1862889;76;21028;-58
2022/05/20 04:27:30;;;;;;;4.05;2.02;;;15.20;76.50;;;;;;1862813;76;21040;-57
2022/05/20 04:30:00;;;;;;;6.05;2.10;;;15.30;76.20;;;;;;1862791;77;21094;-57
2022/05/20 04:32:29;;;;;;;1.92;1.67;;;15.40;76.10;;;;;;1862784;76;21028;-57
2022/05/20 04:34:58;;;;;;;2.52;2.15;;;15.60;76.10;;;;;;1862806;76;21093;-58
2022/05/20 04:37:28;;;;;;;3.00;1.80;;;15.70;76.00;;;;;;1862920;76;21117;-57
2022/05/20 04:39:57;;;;;;;6.45;1.80;;;15.80;75.80;;;;;;1862815;77;21118;-57
2022/05/20 04:48:02;;;;;;;3.77;1.67;;;15.90;75.00;;;;;;1828460;77;21191;-57
2022/05/20 04:50:32;;;;;;;3.87;1.40;;;16.00;74.90;;;;;;1792890;80;21059;-57
2022/05/20 04:53:01;;;;;;;2.75;1.75;;;16.00;74.80;;;;;;1791405;79;21132;-57
2022/05/20 04:55:31;;;;;;;3.62;2.02;;;16.10;74.70;;;;;;1828354;77;21024;-57
2022/05/20 04:58:02;;;;;;;4.78;2.20;;;16.10;74.60;;;;;;1825782;77;21040;-57
2022/05/20 05:00:33;;;;;;;4.08;2.27;;;16.10;74.60;;;;;;1880836;76;21109;-57
2022/05/20 05:03:03;;;;;;;4.22;2.02;;;16.20;74.60;;;;;;1782870;80;21046;-58
2022/05/20 05:05:32;;;;;;;2.27;1.85;;;16.30;74.30;;;;;;1805462;79;21114;-57
2022/05/20 05:08:02;;;;;;;3.98;2.20;;;16.30;74.20;;;;;;1805421;79;21127;-57
2022/05/20 05:10:31;;;;;;;4.10;1.98;;;16.30;74.30;;;;;;1822470;77;21041;-57
2022/05/20 05:13:02;;;;;;;8.13;2.67;;;16.30;74.10;;;;;;1791426;79;21127;-57
2022/05/20 05:15:31;;;;;;;2.85;1.72;;;16.40;74.00;;;;;;1828388;78;21122;-57
2022/05/20 05:18:11;;;;;;;3.72;1.65;;;16.50;74.10;;;;;;1825803;78;21071;-57
2022/05/20 05:20:50;;;;;;;3.92;1.70;;;16.50;73.80;;;;;;1880853;76;21058;-58
2022/05/20 05:23:21;;;;;;;6.95;2.22;;;16.60;73.70;;;;;;1791312;79;21064;-57
2022/05/20 05:25:50;;;;;;;5.15;2.27;;;16.60;73.50;;;;;;1828280;77;21055;-58
2022/05/20 05:28:20;;;;;;;3.17;1.98;;;16.70;73.30;;;;;;1825741;78;21114;-57
2022/05/20 05:30:51;;;;;;;2.70;1.92;;;16.70;73.40;;;;;;1880830;76;21036;-58
2022/05/20 05:33:21;;;;;;;4.00;1.60;;;16.80;73.30;;;;;;1791456;79;21122;-58
2022/05/20 05:35:50;;;;;;;3.08;1.72;;;16.80;73.10;;;;;;1828348;77;21047;-58
2022/05/20 05:38:20;;;;;;;2.70;1.77;;;16.90;72.90;;;;;;1825641;78;21020;-58
2022/05/20 05:40:50;;;;;;;5.67;2.10;;;17.00;73.00;;;;;;1880769;75;21035;-57
2022/05/20 05:43:20;;;;;;;6.15;2.17;;;17.00;73.00;;;;;;1804560;79;21108;-57
2022/05/20 05:45:49;;;;;;;2.50;1.77;;;17.20;72.80;;;;;;1862806;77;21052;-58
2022/05/20 05:48:19;;;;;;;2.83;1.98;;;17.30;72.60;;;;;;1862845;77;21032;-57
2022/05/20 05:50:48;;;;;;;2.87;1.92;;;17.40;72.50;;;;;;1862872;77;21141;-58
2022/05/20 05:53:19;;;;;;;2.05;1.30;;;17.70;72.20;;;;;;1862664;77;21079;-58
2022/05/20 05:55:51;;;;;;;3.37;1.92;;;17.90;71.10;;;;;;1862831;77;21536;-58
2022/05/20 05:58:20;;;;;;;1.77;1.45;;;18.00;70.50;;;;;;1862747;76;21499;-58
2022/05/20 06:00:50;;;;;;;6.12;2.17;;;18.10;70.10;;;;;;1862767;77;21114;-58
2022/05/20 06:03:19;;;;;;;2.00;1.57;;;18.20;69.60;;;;;;1862913;77;21036;-58
2022/05/20 06:05:48;;;;;;;1.92;1.60;;;18.30;69.20;;;;;;1862933;76;21544;-58
2022/05/20 06:08:18;;;;;;;5.70;1.62;;;18.30;68.70;;;;;;1862924;76;21141;-58
2022/05/20 06:10:47;;;;;;;3.87;1.90;;;18.40;68.90;;;;;;1862773;77;21071;-58
2022/05/20 06:13:29;;;;;;;5.70;2.15;;;18.40;69.00;;;;;;1862824;76;21113;-58
2022/05/20 06:15:58;;;;;;;4.90;2.08;;;18.50;68.80;;;;;;1862929;77;21041;-58
2022/05/20 06:18:28;;;;;;;4.70;2.08;;;18.60;68.90;;;;;;1862903;76;21067;-57
2022/05/20 06:20:58;;;;;;;3.58;1.98;;;18.60;68.30;;;;;;1862829;76;21020;-57
2022/05/20 06:23:27;;;;;;;6.75;1.95;;;18.70;68.00;;;;;;1862823;76;21107;-58
2022/05/20 06:25:58;;;;;;;3.05;1.90;;;18.70;68.30;;;;;;1862887;76;21076;-58
2022/05/20 06:28:27;;;;;;;1.90;1.55;;;18.80;68.30;;;;;;1862907;77;21067;-58
2022/05/20 06:30:56;;;;;;;3.83;1.60;;;18.90;68.10;;;;;;1862911;77;21552;-57
2022/05/20 06:33:25;;;;;;;5.00;1.90;;;19.00;67.60;;;;;;1862970;77;21110;-58
2022/05/20 06:41:29;;;;;;;2.30;1.70;;;19.20;66.90;;;;;;1863168;75;21189;-56
2022/05/20 06:43:59;;;;;;;4.53;2.17;;;19.30;66.60;;;;;;1791423;79;21028;-58
2022/05/20 06:46:29;;;;;;;2.35;1.85;;;19.30;66.20;;;;;;1828312;78;21121;-58
2022/05/20 06:48:58;;;;;;;5.92;2.50;;;19.30;66.10;;;;;;1825686;78;21027;-58
2022/05/20 06:51:30;;;;;;;5.42;1.77;;;19.40;66.40;;;;;;1880778;76;21087;-58
2022/05/20 06:54:01;;;;;;;4.78;1.92;;;19.50;66.30;;;;;;1782891;79;21074;-58
2022/05/20 06:56:31;;;;;;;5.12;1.65;;;19.50;66.10;;;;;;1805388;78;21104;-58
2022/05/20 06:59:02;;;;;;;4.17;2.10;;;19.60;65.80;;;;;;1805365;78;21049;-57
2022/05/20 07:01:31;;;;;;;3.58;1.80;;;19.60;65.50;;;;;;1805360;79;21123;-58
2022/05/20 07:04:01;;;;;;;3.37;2.08;;;19.60;65.30;;;;;;1805478;78;21068;-58
2022/05/20 07:06:32;;;;;;;7.33;1.87;;;19.60;64.80;;;;;;1805432;78;21088;-58
2022/05/20 07:09:02;;;;;;;2.65;1.70;;;19.60;64.70;;;;;;1805476;78;21033;-57
2022/05/20 07:11:32;;;;;;;5.05;3.12;;;19.60;64.70;;;;;;1805377;78;21119;-58
2022/05/20 07:14:01;;;;;;;4.42;1.80;;;19.50;64.30;;;;;;1805388;79;21041;-58
2022/05/20 07:16:31;;;;;;;2.80;1.92;;;19.50;64.60;;;;;;1805352;78;21133;-58
2022/05/20 07:19:00;;;;;;;10.32;2.17;;;19.40;64.80;;;;;;1805484;79;21045;-58
2022/05/20 07:21:29;;;;;;;3.65;1.77;;;19.40;64.80;;;;;;1792688;80;21051;-57
2022/05/20 07:24:01;;;;;;;5.15;2.55;;;19.40;64.70;;;;;;1791360;79;21028;-58
2022/05/20 07:26:30;;;;;;;4.97;1.70;;;19.40;64.40;;;;;;1828276;78;21087;-57
2022/05/20 07:28:59;;;;;;;2.67;1.80;;;19.30;64.00;;;;;;1825678;78;21113;-58
2022/05/20 07:31:29;;;;;;;2.72;1.60;;;19.30;63.80;;;;;;1880672;76;21020;-58
2022/05/20 07:33:58;;;;;;;4.37;1.77;;;19.30;64.30;;;;;;1791453;80;21052;-59
2022/05/20 07:36:27;;;;;;;2.47;1.75;;;19.30;64.40;;;;;;1828289;78;21094;-57
2022/05/20 07:38:57;;;;;;;2.98;1.67;;;19.40;64.60;;;;;;1825639;78;21177;-57
2022/05/20 07:41:26;;;;;;;6.97;2.00;;;19.50;64.30;;;;;;1880590;75;21074;-57
2022/05/20 07:43:56;;;;;;;3.37;1.42;;;19.50;64.20;;;;;;1822332;77;21081;-57
2022/05/20 07:46:26;;;;;;;4.87;1.82;;;19.50;64.00;;;;;;1880547;76;21012;-57
2022/05/20 07:48:56;;;;;;;3.80;1.45;;;19.50;64.20;;;;;;1880695;76;21113;-57
2022/05/20 07:51:27;;;;;;;2.27;1.70;;;19.50;63.80;;;;;;1880614;76;21028;-58
2022/05/20 07:53:59;;;;;;;3.20;1.47;;;19.50;63.90;;;;;;1880747;76;21031;-57
2022/05/20 07:56:37;;;;;;;5.70;1.82;;;19.50;63.70;;;;;;1880426;76;21063;-58
2022/05/20 07:59:09;;;;;;;2.27;1.40;;;19.50;63.70;;;;;;1880887;76;21184;-57
2022/05/20 08:01:41;;;;;;;7.80;2.35;;;19.40;63.30;;;;;;1880493;76;21454;-58
2022/05/20 08:07:10;;;;;;;2.98;1.70;;;19.40;63.00;;;;;;1880774;76;21028;-58
2022/05/20 08:09:39;;;;;;;4.22;2.15;;;19.30;63.50;;;;;;1880693;76;21038;-57
2022/05/20 08:12:09;;;;;;;4.03;1.52;;;19.30;63.60;;;;;;1880585;75;21164;-58
2022/05/20 08:14:39;;;;;;;4.67;1.87;;;19.40;63.40;;;;;;1879435;76;21039;-57
2022/05/20 08:17:08;;;;;;;4.12;2.00;;;19.40;63.60;;;;;;1880183;76;21047;-57
2022/05/20 08:19:39;;;;;;;3.77;1.50;;;19.40;64.50;;;;;;1880185;76;21070;-57
2022/05/20 08:22:09;;;;;;;3.02;1.85;;;19.50;64.10;;;;;;1879995;76;21099;-58
2022/05/20 08:24:38;;;;;;;1.92;1.42;;;19.50;64.40;;;;;;1880206;76;21067;-57
2022/05/20 08:27:08;;;;;;;4.70;1.85;;;19.50;64.30;;;;;;1880226;76;21079;-59
2022/05/20 08:29:37;;;;;;;11.10;2.35;;;19.40;64.20;;;;;;1880133;76;21498;-57
2022/05/20 08:32:07;;;;;;;4.62;2.22;;;19.50;63.60;;;;;;1880101;75;21344;-58
2022/05/20 08:34:36;;;;;;;8.33;2.17;;;19.40;64.30;;;;;;1880119;76;21043;-58
2022/05/20 08:37:06;;;;;;;7.30;1.45;;;19.50;64.20;;;;;;1880119;75;21121;-56
2022/05/20 08:39:35;;;;;;;5.90;1.67;;;19.50;63.90;;;;;;1880152;76;21133;-57
2022/05/20 08:42:07;;;;;;;3.90;2.55;;;19.40;63.70;;;;;;1880150;76;21019;-58
2022/05/20 08:44:36;;;;;;;8.20;1.98;;;19.30;63.80;;;;;;1879399;76;21723;-58
2022/05/20 08:47:14;;;;;;;6.37;1.98;;;19.30;63.90;;;;;;1880223;75;21035;-59
2022/05/20 08:49:44;;;;;;;2.90;1.70;;;19.20;64.20;;;;;;1860278;76;21039;-56
2022/05/20 08:52:13;;;;;;;5.87;2.90;;;19.10;64.10;;;;;;1880290;76;21043;-59
2022/05/20 08:54:43;;;;;;;3.08;1.80;;;19.10;64.70;;;;;;1880223;75;21051;-61
2022/05/20 08:57:24;;;;;;;2.40;1.47;;;19.10;64.60;;;;;;1879692;76;21114;-60
2022/05/20 08:59:54;;;;;;;3.02;1.80;;;19.20;64.30;;;;;;1880064;75;21039;-58
2022/05/20 09:02:24;;;;;;;3.67;1.92;;;19.40;64.10;;;;;;1880263;76;21146;-61
2022/05/20 09:04:53;;;;;;;4.72;2.15;;;19.50;64.00;;;;;;1880282;76;21031;-61
2022/05/20 09:07:23;;;;;;;5.53;2.17;;;19.60;63.60;;;;;;1880321;75;21109;-61
2022/05/20 09:09:59;;;;;;;5.60;1.92;;;19.70;63.60;;;;;;1880257;76;21015;-59
2022/05/20 09:12:34;;;;;;;5.53;2.27;;;19.80;63.30;;;;;;1880197;75;21539;-61
2022/05/20 09:18:07;;;;;;;4.67;1.70;;;19.90;62.90;;;;;;1880161;75;21058;-60
2022/05/20 09:20:45;;;;;;;3.42;2.15;;;19.90;62.40;;;;;;1880100;75;21137;-59
2022/05/20 09:23:20;;;;;;;6.53;2.02;;;20.00;63.00;;;;;;1879154;75;21568;-61
2022/05/20 09:26:01;;;;;;;4.20;2.10;;;20.10;62.00;;;;;;1880117;76;21568;-57
2022/05/20 09:28:42;;;;;;;3.45;1.87;;;20.10;60.80;;;;;;1879964;76;21636;-61
2022/05/20 09:31:23;;;;;;;3.10;1.90;;;20.20;60.40;;;;;;1880215;75;21114;-60
2022/05/20 09:33:55;;;;;;;6.85;2.15;;;20.20;59.50;;;;;;1879354;75;21184;-59
2022/05/20 09:36:36;;;;;;;3.12;2.67;;;20.10;58.70;;;;;;1827913;78;21482;-59
2022/05/20 09:39:11;;;;;;;5.72;2.27;;;20.10;58.60;;;;;;1880020;75;21604;-59
2022/05/20 09:41:52;;;;;;;5.37;2.15;;;20.20;59.30;;;;;;1825473;78;21087;-59
2022/05/20 09:44:24;;;;;;;5.35;1.95;;;20.30;58.90;;;;;;1879976;76;21916;-59
2022/05/20 09:46:58;;;;;;;6.25;2.22;;;20.40;58.30;;;;;;1827616;78;21016;-59
2022/05/20 09:49:41;;;;;;;;;;;20.50;57.70;;;;;;1881245;76;21501;-58
2022/05/20 09:52:19;;;;;;;6.17;2.80;;;20.40;57.20;;;;;;1834066;77;20144;-58
2022/05/20 09:54:50;;;;;;;5.78;2.33;;;20.40;58.20;;;;;;1851296;77;21494;-58
2022/05/20 09:57:40;;;;;;;3.20;2.08;;;20.40;58.60;;;;;;1879636;76;21483;-59
2022/05/20 10:00:23;;;;;;;3.62;2.33;;;20.40;57.70;;;;;;1782590;80;21085;-59
2022/05/20 10:03:00;;;;;;;4.72;2.47;;;20.40;57.20;;;;;;1878612;76;21540;-60
2022/05/20 10:05:38;;;;;;;8.50;2.77;;;20.50;57.60;;;;;;1877873;76;21060;-59
2022/05/20 10:08:10;;;;;;;3.50;2.40;;;20.70;56.90;;;;;;1877189;76;21051;-58
2022/05/20 10:10:45;;;;;;;4.22;2.47;;;20.70;56.90;;;;;;1816522;76;21011;-59
2022/05/20 10:13:32;;;;;;;3.62;1.90;;;20.80;56.90;;;;;;1878543;76;21074;-57
2022/05/20 10:16:36;;;;;;;5.25;2.72;;;20.90;56.80;;;;;;1877169;76;21163;-57
2022/05/20 10:19:17;;;;;;;5.65;2.20;;;21.00;57.60;;;;;;1878351;76;21129;-57
2022/05/20 10:22:02;;;;;;;9.63;2.45;;;21.20;57.10;;;;;;1878417;76;21011;-57
2022/05/20 10:24:51;;;;;;;5.93;2.13;;;21.40;55.70;;;;;;1878199;76;21481;-57
2022/05/20 10:27:32;;;;;;;3.62;1.60;;;21.50;55.30;;;;;;1878246;76;21196;-57
2022/05/20 10:33:09;;;;;;;4.35;2.40;;;21.60;55.10;;;;;;1878411;76;21067;-59
2022/05/20 10:35:50;;;;;;;2.77;1.65;;;21.60;55.20;;;;;;1878969;76;21482;-59
2022/05/20 10:38:22;;;;;;;2.70;1.90;;;21.70;54.80;;;;;;1876835;76;21079;-58
2022/05/20 10:41:07;;;;;;;6.70;3.15;;;21.70;54.00;;;;;;1879174;76;21164;-58
2022/05/20 10:49:42;;;;;;;;;;;21.90;54.30;;;;;;1882047;76;21070;-57
2022/05/20 10:52:24;;;;;;;6.87;2.17;;;21.90;53.00;;;;;;1878352;76;20156;-57
2022/05/20 10:54:59;;;;;;;3.00;1.95;;;22.00;53.80;;;;;;1879268;76;21035;-56
2022/05/20 10:58:04;;;;;;;4.15;2.25;;;22.00;53.80;;;;;;1878890;76;21015;-56
2022/05/20 11:00:52;;;;;;;2.33;1.50;;;22.00;53.80;;;;;;1858615;77;21072;-57
2022/05/20 11:03:51;;;;;;;3.62;2.60;;;22.10;53.60;;;;;;1858739;77;21464;-57
2022/05/20 11:06:31;;;;;;;3.50;1.90;;;22.10;53.50;;;;;;1832318;77;21060;-57
2022/05/20 11:09:09;;;;;;;22.67;13.25;;;22.10;53.60;;;;;;1858236;77;21479;-57
2022/05/20 11:11:50;;;;;;;3.55;1.60;;;22.20;53.90;;;;;;1858722;77;21100;-57
2022/05/20 11:14:34;;;;;;;6.08;2.10;;;22.20;53.60;;;;;;1858115;77;21106;-57
2022/05/20 11:17:28;;;;;;;5.75;1.60;;;22.20;53.40;;;;;;1858598;77;21115;-57
2022/05/20 11:20:16;;;;;;;3.55;1.60;;;22.20;53.50;;;;;;1858936;77;21122;-57
2022/05/20 11:23:06;;;;;;;4.03;2.22;;;22.10;53.20;;;;;;1858724;77;21013;-57
2022/05/20 11:25:54;;;;;;;3.12;1.52;;;22.10;53.70;;;;;;1809669;79;21140;-57
2022/05/20 11:28:38;;;;;;;5.65;2.00;;;22.20;53.90;;;;;;1770610;80;21202;-57
2022/05/20 11:31:26;;;;;;;4.95;1.95;;;22.20;53.80;;;;;;1858566;77;21499;-57
2022/05/20 11:34:01;;;;;;;3.80;1.95;;;22.30;53.20;;;;;;1857393;77;21049;-57
2022/05/20 11:36:42;;;;;;;12.15;2.47;;;22.30;53.10;;;;;;1857034;77;21495;-57
2022/05/20 11:39:34;;;;;;;5.22;1.70;;;22.30;53.20;;;;;;1857511;77;21581;-57
2022/05/20 11:42:15;;;;;;;3.22;1.75;;;22.40;53.30;;;;;;1858610;77;21077;-57
2022/05/20 11:44:55;;;;;;;2.70;2.30;;;22.40;52.90;;;;;;1858711;77;21040;-57
2022/05/20 11:47:41;;;;;;;7.60;3.47;;;22.40;53.10;;;;;;1858011;77;21147;-57
2022/05/20 11:50:25;;;;;;;3.92;2.08;;;22.40;53.10;;;;;;1857691;77;21515;-57
2022/05/20 11:53:03;;;;;;;6.80;2.90;;;22.40;53.00;;;;;;1855483;77;21053;-57
2022/05/20 11:55:39;;;;;;;9.68;2.05;;;22.40;52.30;;;;;;1858601;77;21069;-57
2022/05/20 11:58:11;;;;;;;2.42;1.45;;;22.40;51.50;;;;;;1858733;77;21052;-57
2022/05/20 12:00:42;;;;;;;6.90;2.12;;;22.30;51.30;;;;;;1878613;75;21178;-57
2022/05/20 12:03:20;;;;;;;2.77;2.00;;;22.30;51.60;;;;;;1881446;76;21527;-57
2022/05/20 12:05:51;;;;;;;4.75;2.08;;;22.30;51.90;;;;;;1881489;76;21453;-57
2022/05/20 12:08:40;;;;;;;2.95;2.27;;;22.30;51.50;;;;;;1881586;76;21030;-57
2022/05/20 12:11:27;;;;;;;6.33;1.80;;;22.30;51.40;;;;;;1881372;76;21037;-57
2022/05/20 12:14:03;;;;;;;2.98;2.02;;;22.20;51.70;;;;;;1881572;76;21069;-58
2022/05/20 12:16:34;;;;;;;8.60;5.42;;;22.30;52.20;;;;;;1881384;76;21179;-57
2022/05/20 12:24:49;;;;;;;6.22;3.62;;;22.30;52.60;;;;;;1881379;76;21057;-58
2022/05/20 12:27:28;;;;;;;3.72;1.67;;;22.30;52.80;;;;;;1881420;76;21053;-57
2022/05/20 12:29:59;;;;;;;3.92;1.75;;;22.40;53.50;;;;;;1881401;76;21539;-58
2022/05/20 12:32:40;;;;;;;3.35;2.20;;;22.40;52.50;;;;;;1881370;76;21500;-57
2022/05/20 12:35:15;;;;;;;6.30;2.22;;;22.30;52.10;;;;;;1881431;76;21010;-57
2022/05/20 12:37:48;;;;;;;3.27;1.80;;;22.30;52.50;;;;;;1881346;76;21504;-57
2022/05/20 12:40:22;;;;;;;7.78;2.05;;;22.30;53.20;;;;;;1881428;76;21058;-58
2022/05/20 12:43:01;;;;;;;7.45;2.30;;;22.30;52.80;;;;;;1880593;75;21100;-57
2022/05/20 12:45:35;;;;;;;4.30;2.67;;;22.30;52.60;;;;;;1876899;76;21069;-57
2022/05/20 12:48:05;;;;;;;4.03;1.98;;;22.10;52.10;;;;;;1881505;76;21092;-58
2022/05/20 12:50:34;;;;;;;6.35;2.75;;;22.00;52.60;;;;;;1881181;76;21075;-57
2022/05/20 12:53:06;;;;;;;9.20;1.98;;;21.80;53.30;;;;;;1881399;76;21058;-57
2022/05/20 12:55:38;;;;;;;4.50;2.35;;;21.60;53.50;;;;;;1881550;76;21476;-57
2022/05/20 12:58:10;;;;;;;4.53;1.90;;;21.50;54.20;;;;;;1881561;76;21002;-57
2022/05/20 13:00:48;;;;;;;1.85;1.45;;;21.60;54.70;;;;;;1881376;76;21155;-57
2022/05/20 13:03:26;;;;;;;4.90;2.25;;;21.60;54.60;;;;;;1881378;76;21030;-57
2022/05/20 13:06:03;;;;;;;5.67;2.15;;;21.50;54.60;;;;;;1881414;76;21163;-57
2022/05/20 13:08:48;;;;;;;5.15;1.82;;;21.50;54.80;;;;;;1879422;76;21166;-57
2022/05/20 13:11:19;;;;;;;7.30;3.10;;;21.40;54.80;;;;;;1881551;76;21100;-57
2022/05/20 13:13:53;;;;;;;3.58;2.37;;;21.40;55.10;;;;;;1881296;76;21025;-57
2022/05/20 13:16:24;;;;;;;4.62;2.15;;;21.30;55.30;;;;;;1881464;76;21504;-57
2022/05/20 13:19:02;;;;;;;6.30;2.42;;;21.30;55.40;;;;;;1881371;76;21150;-57
2022/05/20 13:21:34;;;;;;;4.80;2.35;;;21.20;55.60;;;;;;1881276;76;21111;-57
2022/05/20 13:24:19;;;;;;;4.30;2.10;;;21.30;55.70;;;;;;1880227;76;21037;-57
2022/05/20 13:26:48;;;;;;;4.03;2.55;;;21.40;55.70;;;;;;1881370;76;21034;-57
2022/05/20 13:29:20;;;;;;;2.87;1.72;;;21.40;55.80;;;;;;1881256;76;21055;-58
2022/05/20 13:31:50;;;;;;;8.33;2.45;;;21.50;55.40;;;;;;1881446;76;21037;-57
2022/05/20 13:34:19;;;;;;;6.05;2.67;;;21.60;54.70;;;;;;1881254;76;21115;-57
2022/05/20 13:36:50;;;;;;;3.92;2.00;;;21.60;54.90;;;;;;1881555;76;21103;-58
2022/05/20 13:39:22;;;;;;;3.02;2.10;;;21.70;54.00;;;;;;1881351;76;21112;-58
2022/05/20 13:41:52;;;;;;;3.77;2.37;;;21.60;53.50;;;;;;1881315;76;21006;-57
2022/05/20 13:44:22;;;;;;;6.05;2.92;;;21.60;53.60;;;;;;1881334;76;21037;-57
2022/05/20 13:49:40;;;;;;;3.62;1.98;;;21.60;53.80;;;;;;1881362;76;21054;-58
2022/05/20 13:52:13;;;;;;;3.17;2.02;;;21.50;53.80;;;;;;1881416;76;21119;-58
2022/05/20 13:54:45;;;;;;;4.20;2.20;;;21.40;53.80;;;;;;1881316;76;21046;-57
2022/05/20 13:57:35;;;;;;;3.35;2.65;;;21.30;54.30;;;;;;1881419;76;21112;-58
2022/05/20 14:00:11;;;;;;;3.58;2.37;;;21.30;54.40;;;;;;1881315;76;21131;-58